Pagina principală
METAR-TAF:

METAR-TAF

Aeroporturi :

Meacham, Oregon, Statele Unite ale Americii

Latitudine: 45-30-41N, longitudine: 118-25-29W, elevație: 1135 m

Observații meteo curente

Raportul a fost făcut în urmă cu 1 oră și 11 de minute, la 01:56 UTC
Vânt calm
Temperatură 23°C
Umiditate 33%
Presiune 1016 hPa
Vizibilitate: 16.1 km
Cer senin

METAR: KMEH 060156Z AUTO 00000KT 10SM CLR 23/06 A3000 RMK AO2 SLP142 T02280056

Ora: 20:07 (03:07 UTC)


TAF: lipsă

Observații și prognoze meteo pentru peste 4.000 de aeroporturi (rapoarte METAR și TAF).

Stațiile disponibile sunt reprezentate pe hartă prin puncte galbene și roșii.

Țineți indicatorul mouse-ului pe punctul dorit pentru a vedea denumirea stației.

Apoi, faceți clic pentru a vedea observațiile și prognozele meteorologice.

Pentru a schimba harta: Pentru mărire, faceți clic pe butoanele verzi cu cruce neagră; pentru micșorare, pe butonul verde cu o liniuță; pentru hărți învecinate, pe săgețile verzi.


METAR-TAF: